Time;durP1;ratioP1;P1;durP2;ratioP2;P2;SDS_P1;SDS_P2;PMS_P1;PMS_P2;Temp;Humidity;BMP_temperature;BMP_pressure;BME280_temperature;BME280_humidity;BME280_pressure;Samples;Min_cycle;Max_cycle;Signal;HPM_P1;HPM_P2
2023/09/01 00:00:09;;;;;;;3.08;1.40;;;;;;;;;;5071233;28;20103;-77
2023/09/01 00:02:35;;;;;;;3.70;1.30;;;;;;;;;;5075229;28;20043;-76
2023/09/01 00:05:00;;;;;;;3.90;1.40;;;;;;;;;;5066978;28;20017;-78
2023/09/01 00:07:26;;;;;;;2.42;1.23;;;;;;;;;;5067722;28;20032;-79
2023/09/01 00:09:51;;;;;;;2.63;1.30;;;;;;;;;;5060298;28;20329;-79
2023/09/01 00:12:16;;;;;;;4.28;1.33;;;;;;;;;;5067130;28;20033;-79
2023/09/01 00:14:42;;;;;;;3.03;1.42;;;;;;;;;;5065366;28;20329;-78
2023/09/01 00:17:08;;;;;;;3.15;1.30;;;;;;;;;;5057455;28;20032;-78
2023/09/01 00:19:34;;;;;;;3.80;1.30;;;;;;;;;;5061964;28;20351;-74
2023/09/01 00:21:59;;;;;;;2.92;1.23;;;;;;;;;;5079576;28;20024;-74
2023/09/01 00:24:25;;;;;;;1.60;1.20;;;;;;;;;;5077715;28;20150;-74
2023/09/01 00:26:50;;;;;;;3.20;1.20;;;;;;;;;;5077870;28;20106;-78
2023/09/01 00:29:16;;;;;;;3.45;1.30;;;;;;;;;;5078906;28;20115;-74
2023/09/01 00:31:41;;;;;;;4.45;1.30;;;;;;;;;;5081801;28;20099;-74
2023/09/01 00:34:06;;;;;;;3.60;1.20;;;;;;;;;;5082994;28;20078;-77
2023/09/01 00:36:32;;;;;;;2.92;1.50;;;;;;;;;;5083043;28;20017;-78
2023/09/01 00:38:57;;;;;;;2.25;1.20;;;;;;;;;;5082559;28;20496;-74
2023/09/01 00:41:22;;;;;;;2.25;1.17;;;;;;;;;;5078522;28;20075;-74
2023/09/01 00:43:48;;;;;;;2.03;1.05;;;;;;;;;;5082370;28;20040;-74
2023/09/01 00:46:13;;;;;;;2.63;1.10;;;;;;;;;;5082598;28;20037;-76
2023/09/01 00:48:38;;;;;;;3.25;1.30;;;;;;;;;;5082754;28;20313;-74
2023/09/01 00:51:04;;;;;;;4.45;1.30;;;;;;;;;;5082790;28;20321;-74
2023/09/01 00:53:29;;;;;;;4.75;1.52;;;;;;;;;;5079288;28;20055;-74
2023/09/01 00:55:57;;;;;;;3.72;1.38;;;;;;;;;;5062839;28;20031;-76
2023/09/01 00:58:24;;;;;;;2.75;1.10;;;;;;;;;;5053626;28;20055;-74
2023/09/01 01:00:50;;;;;;;3.75;1.10;;;;;;;;;;5068337;28;20020;-74
2023/09/01 01:03:16;;;;;;;2.88;1.20;;;;;;;;;;5067804;28;20028;-74
2023/09/01 01:06:00;;;;;;;3.15;1.10;;;;;;;;;;5076682;28;20031;-73
2023/09/01 01:08:42;;;;;;;3.03;1.10;;;;;;;;;;5082124;28;20216;-74
2023/09/01 01:11:16;;;;;;;3.08;1.20;;;;;;;;;;5072052;28;20044;-77
2023/09/01 01:13:48;;;;;;;2.92;1.10;;;;;;;;;;5074485;28;20093;-75
2023/09/01 01:16:16;;;;;;;3.90;1.10;;;;;;;;;;5079279;28;20247;-74
2023/09/01 01:18:44;;;;;;;4.97;1.17;;;;;;;;;;5080910;28;20023;-77
2023/09/01 01:21:24;;;;;;;2.88;1.25;;;;;;;;;;5064712;28;20023;-75
2023/09/01 01:23:51;;;;;;;3.28;1.20;;;;;;;;;;5072240;28;20312;-74
2023/09/01 01:26:16;;;;;;;3.58;1.25;;;;;;;;;;5072811;28;20032;-74
2023/09/01 01:28:41;;;;;;;3.90;1.23;;;;;;;;;;5081166;28;20036;-73
2023/09/01 01:31:07;;;;;;;4.00;1.40;;;;;;;;;;5081632;28;20017;-75
2023/09/01 01:33:55;;;;;;;3.53;1.20;;;;;;;;;;5078758;28;20028;-77
2023/09/01 01:36:32;;;;;;;2.88;1.20;;;;;;;;;;5081813;28;20021;-75
2023/09/01 01:39:04;;;;;;;4.53;1.30;;;;;;;;;;5081382;28;20047;-74
2023/09/01 01:41:43;;;;;;;2.65;1.20;;;;;;;;;;5081051;28;20295;-74
2023/09/01 01:44:11;;;;;;;4.72;1.30;;;;;;;;;;5076607;28;20025;-74
2023/09/01 01:46:38;;;;;;;2.88;1.20;;;;;;;;;;5081635;28;20017;-73
2023/09/01 01:49:10;;;;;;;3.47;1.20;;;;;;;;;;5072740;28;20040;-78
2023/09/01 01:51:36;;;;;;;4.28;1.33;;;;;;;;;;5081508;28;20012;-73
2023/09/01 01:54:02;;;;;;;4.13;1.27;;;;;;;;;;5078486;28;20063;-74
2023/09/01 01:56:27;;;;;;;3.50;1.10;;;;;;;;;;5061742;28;20036;-74
2023/09/01 01:58:53;;;;;;;4.50;1.30;;;;;;;;;;5074285;28;20024;-78
2023/09/01 02:01:18;;;;;;;4.43;1.30;;;;;;;;;;5078087;28;20052;-74
2023/09/01 02:03:44;;;;;;;4.18;1.30;;;;;;;;;;5074987;28;20036;-73
2023/09/01 02:06:10;;;;;;;4.18;1.20;;;;;;;;;;5075495;28;20046;-76
2023/09/01 02:08:36;;;;;;;3.58;1.40;;;;;;;;;;5062952;28;20185;-75
2023/09/01 02:11:01;;;;;;;4.07;1.42;;;;;;;;;;5076555;28;20037;-78
2023/09/01 02:13:26;;;;;;;3.97;1.25;;;;;;;;;;5080259;28;20103;-79
2023/09/01 02:15:54;;;;;;;4.25;1.30;;;;;;;;;;5064738;28;20027;-77
2023/09/01 02:18:20;;;;;;;3.35;1.30;;;;;;;;;;5074834;28;20039;-78
2023/09/01 02:20:45;;;;;;;3.20;1.30;;;;;;;;;;5076312;28;20021;-78
2023/09/01 02:23:15;;;;;;;2.25;1.20;;;;;;;;;;5064520;28;20028;-79
2023/09/01 02:25:40;;;;;;;3.90;1.20;;;;;;;;;;5066951;28;20086;-76
2023/09/01 02:28:06;;;;;;;4.90;1.20;;;;;;;;;;5075549;28;20044;-79
2023/09/01 02:30:32;;;;;;;2.85;1.25;;;;;;;;;;5073816;28;20095;-79
2023/09/01 02:32:57;;;;;;;3.95;1.30;;;;;;;;;;5079108;28;20028;-79
2023/09/01 02:35:23;;;;;;;4.03;1.20;;;;;;;;;;5080669;28;20035;-77
2023/09/01 02:37:49;;;;;;;3.08;1.23;;;;;;;;;;5077036;28;20091;-78
2023/09/01 02:40:17;;;;;;;3.40;1.10;;;;;;;;;;5075744;28;20031;-78
2023/09/01 02:42:43;;;;;;;4.18;1.20;;;;;;;;;;5071527;28;20062;-76
2023/09/01 02:45:12;;;;;;;3.42;1.38;;;;;;;;;;5076381;28;20032;-76
2023/09/01 02:47:38;;;;;;;2.42;1.13;;;;;;;;;;5078571;28;20193;-75
2023/09/01 02:50:04;;;;;;;3.00;1.17;;;;;;;;;;5075563;28;20031;-74
2023/09/01 02:52:30;;;;;;;5.60;1.20;;;;;;;;;;5079845;28;20040;-74
2023/09/01 02:54:56;;;;;;;2.67;1.27;;;;;;;;;;5079944;28;20060;-75
2023/09/01 02:57:22;;;;;;;3.38;1.20;;;;;;;;;;5080061;28;20091;-74
2023/09/01 02:59:47;;;;;;;2.80;1.30;;;;;;;;;;5078046;28;20119;-74
2023/09/01 03:02:13;;;;;;;2.67;1.33;;;;;;;;;;5074745;28;20029;-79
2023/09/01 03:04:38;;;;;;;3.00;1.40;;;;;;;;;;5080559;28;20020;-74
2023/09/01 03:07:03;;;;;;;3.70;1.33;;;;;;;;;;5071331;28;20096;-74
2023/09/01 03:09:29;;;;;;;3.55;1.23;;;;;;;;;;5078366;28;20029;-74
2023/09/01 03:11:54;;;;;;;14.20;1.90;;;;;;;;;;5080130;28;20024;-75
2023/09/01 03:14:19;;;;;;;7.25;1.58;;;;;;;;;;5076942;28;20142;-77
2023/09/01 03:16:45;;;;;;;4.25;1.33;;;;;;;;;;5074362;28;20086;-76
2023/09/01 03:19:10;;;;;;;3.28;1.30;;;;;;;;;;5080533;28;20074;-78
2023/09/01 03:21:36;;;;;;;4.25;1.55;;;;;;;;;;5077777;28;20101;-78
2023/09/01 03:24:02;;;;;;;4.25;1.40;;;;;;;;;;5072571;28;20037;-78
2023/09/01 03:26:30;;;;;;;3.20;1.50;;;;;;;;;;5075854;28;20070;-74
2023/09/01 03:28:56;;;;;;;3.22;1.20;;;;;;;;;;5071481;28;20044;-75
2023/09/01 03:31:21;;;;;;;4.40;1.70;;;;;;;;;;5072464;28;20103;-78
2023/09/01 03:33:47;;;;;;;7.50;1.45;;;;;;;;;;5058106;28;20033;-72
2023/09/01 03:36:12;;;;;;;6.25;1.50;;;;;;;;;;5071958;28;20021;-77
2023/09/01 03:38:38;;;;;;;3.70;1.50;;;;;;;;;;5079884;28;20031;-77
2023/09/01 03:41:04;;;;;;;5.57;1.40;;;;;;;;;;5071461;28;20472;-77
2023/09/01 03:43:31;;;;;;;3.45;1.50;;;;;;;;;;5053519;28;20040;-78
2023/09/01 03:45:57;;;;;;;4.43;1.45;;;;;;;;;;5058443;28;20051;-78
2023/09/01 03:48:23;;;;;;;4.03;1.40;;;;;;;;;;5056860;28;20477;-77
2023/09/01 03:51:09;;;;;;;7.03;1.50;;;;;;;;;;5070797;28;20043;-76
2023/09/01 03:53:34;;;;;;;4.20;1.50;;;;;;;;;;5048959;28;20107;-78
2023/09/01 03:56:05;;;;;;;4.90;1.60;;;;;;;;;;5053943;28;20112;-78
2023/09/01 03:58:33;;;;;;;3.80;1.60;;;;;;;;;;5052424;28;20380;-78
2023/09/01 04:00:59;;;;;;;5.35;1.60;;;;;;;;;;5051866;28;20082;-74
2023/09/01 04:03:24;;;;;;;6.15;1.80;;;;;;;;;;5064205;28;20021;-77
2023/09/01 04:05:55;;;;;;;4.85;1.60;;;;;;;;;;5058895;28;20071;-78
2023/09/01 04:08:20;;;;;;;3.83;1.63;;;;;;;;;;5051115;28;20037;-78
2023/09/01 04:10:45;;;;;;;4.90;1.75;;;;;;;;;;5072730;28;20021;-74
2023/09/01 04:13:11;;;;;;;6.65;2.10;;;;;;;;;;5060703;28;21588;-74
2023/09/01 04:15:36;;;;;;;4.70;1.90;;;;;;;;;;5071958;28;20626;-74
2023/09/01 04:18:02;;;;;;;3.65;1.60;;;;;;;;;;5053918;28;20032;-78
2023/09/01 04:20:27;;;;;;;3.78;1.60;;;;;;;;;;5071879;28;20032;-78
2023/09/01 04:22:52;;;;;;;4.28;1.80;;;;;;;;;;5067088;28;20610;-78
2023/09/01 04:25:17;;;;;;;4.43;1.60;;;;;;;;;;5061219;28;20036;-78
2023/09/01 04:27:43;;;;;;;5.57;1.58;;;;;;;;;;5054248;28;20043;-73
2023/09/01 04:30:08;;;;;;;5.15;1.70;;;;;;;;;;5056960;28;20033;-77
2023/09/01 04:32:34;;;;;;;7.13;1.95;;;;;;;;;;5055108;28;20405;-74
2023/09/01 04:35:00;;;;;;;6.47;1.98;;;;;;;;;;5051801;28;20025;-73
2023/09/01 04:37:25;;;;;;;6.68;1.95;;;;;;;;;;5057358;28;20082;-74
2023/09/01 04:39:50;;;;;;;5.53;1.83;;;;;;;;;;5058894;28;20017;-74
2023/09/01 04:42:16;;;;;;;7.15;1.70;;;;;;;;;;5051735;28;20029;-75
2023/09/01 04:44:41;;;;;;;4.65;1.90;;;;;;;;;;5065965;28;20020;-77
2023/09/01 04:47:06;;;;;;;4.30;1.70;;;;;;;;;;5051128;28;20517;-77
2023/09/01 04:49:32;;;;;;;4.82;1.83;;;;;;;;;;5056194;28;20027;-78
2023/09/01 04:51:57;;;;;;;4.38;1.80;;;;;;;;;;5050801;28;20052;-76
2023/09/01 04:54:22;;;;;;;4.85;1.90;;;;;;;;;;5053769;28;20041;-76
2023/09/01 04:56:48;;;;;;;6.45;2.00;;;;;;;;;;5052593;28;20032;-78
2023/09/01 04:59:14;;;;;;;5.68;1.80;;;;;;;;;;5051669;28;20025;-77
2023/09/01 05:01:40;;;;;;;5.63;2.00;;;;;;;;;;5055230;28;20542;-77
2023/09/01 05:04:07;;;;;;;4.55;1.80;;;;;;;;;;5053069;28;20028;-78
2023/09/01 05:06:33;;;;;;;6.07;1.90;;;;;;;;;;5064078;28;21645;-74
2023/09/01 05:08:58;;;;;;;6.70;1.80;;;;;;;;;;5052542;28;20029;-76
2023/09/01 05:11:23;;;;;;;3.25;1.70;;;;;;;;;;5071411;28;20186;-74
2023/09/01 05:13:49;;;;;;;4.47;1.80;;;;;;;;;;5068963;28;20055;-76
2023/09/01 05:16:14;;;;;;;5.03;1.83;;;;;;;;;;5058819;28;20024;-74
2023/09/01 05:18:39;;;;;;;5.82;1.90;;;;;;;;;;5057406;28;20052;-75
2023/09/01 05:21:05;;;;;;;5.97;1.85;;;;;;;;;;5063489;28;20027;-74
2023/09/01 05:23:32;;;;;;;5.97;1.90;;;;;;;;;;5059300;28;20029;-77
2023/09/01 05:25:57;;;;;;;5.93;1.70;;;;;;;;;;5038749;28;20108;-74
2023/09/01 05:28:25;;;;;;;3.60;1.55;;;;;;;;;;5055077;28;20128;-82
2023/09/01 05:30:51;;;;;;;6.13;2.13;;;;;;;;;;5033883;28;20029;-80
2023/09/01 05:33:16;;;;;;;5.22;1.92;;;;;;;;;;5052497;28;20040;-85
2023/09/01 05:35:42;;;;;;;4.47;1.88;;;;;;;;;;5052479;28;20045;-75
2023/09/01 05:38:09;;;;;;;8.68;2.10;;;;;;;;;;5051577;28;20044;-77
2023/09/01 05:40:34;;;;;;;5.82;2.30;;;;;;;;;;5059251;28;20033;-76
2023/09/01 05:42:59;;;;;;;3.75;1.70;;;;;;;;;;5057271;28;20173;-75
2023/09/01 05:45:25;;;;;;;6.38;2.00;;;;;;;;;;5054404;28;20102;-77
2023/09/01 05:47:50;;;;;;;5.88;1.73;;;;;;;;;;5064276;28;20222;-85
2023/09/01 05:50:18;;;;;;;4.18;1.65;;;;;;;;;;5051910;28;20040;-81
2023/09/01 05:52:43;;;;;;;4.70;1.75;;;;;;;;;;5055902;28;20044;-83
2023/09/01 05:55:09;;;;;;;4.18;1.50;;;;;;;;;;5049851;28;20047;-81
2023/09/01 05:57:34;;;;;;;5.68;1.73;;;;;;;;;;5056992;28;20024;-83
2023/09/01 05:59:59;;;;;;;3.40;1.50;;;;;;;;;;5054514;28;20583;-82
2023/09/01 06:02:25;;;;;;;4.40;1.60;;;;;;;;;;5059379;28;20100;-83
2023/09/01 06:04:50;;;;;;;6.03;1.70;;;;;;;;;;5057192;28;20039;-81
2023/09/01 06:07:15;;;;;;;4.72;1.58;;;;;;;;;;5050589;28;20112;-81
2023/09/01 06:09:41;;;;;;;6.40;1.60;;;;;;;;;;5052025;28;20056;-82
2023/09/01 06:12:06;;;;;;;4.68;1.60;;;;;;;;;;5059594;28;20024;-87
2023/09/01 06:14:32;;;;;;;4.55;1.52;;;;;;;;;;5061607;28;20024;-82
2023/09/01 06:16:57;;;;;;;6.32;1.75;;;;;;;;;;5056013;28;20070;-79
2023/09/01 06:19:22;;;;;;;5.78;1.88;;;;;;;;;;5053432;28;20024;-82
2023/09/01 06:21:48;;;;;;;5.40;1.75;;;;;;;;;;5051312;28;20029;-82
2023/09/01 06:24:13;;;;;;;8.70;1.90;;;;;;;;;;5054004;28;20021;-82
2023/09/01 06:26:38;;;;;;;6.28;1.70;;;;;;;;;;5054687;28;20025;-83
2023/09/01 06:29:04;;;;;;;4.90;1.60;;;;;;;;;;5054648;28;20040;-76
2023/09/01 06:31:29;;;;;;;6.13;1.50;;;;;;;;;;5058802;28;20052;-79
2023/09/01 06:33:55;;;;;;;5.32;1.70;;;;;;;;;;5049221;28;20405;-80
2023/09/01 06:36:20;;;;;;;7.25;1.60;;;;;;;;;;5050168;28;20139;-79
2023/09/01 06:38:45;;;;;;;6.78;1.80;;;;;;;;;;5052231;28;20029;-79
2023/09/01 06:41:12;;;;;;;5.47;1.63;;;;;;;;;;5051470;28;20037;-80
2023/09/01 06:43:37;;;;;;;4.25;1.52;;;;;;;;;;5062272;28;20028;-79
2023/09/01 06:46:02;;;;;;;4.10;1.48;;;;;;;;;;5059322;28;20028;-79
2023/09/01 06:48:30;;;;;;;5.70;1.83;;;;;;;;;;5055420;28;20055;-78
2023/09/01 06:50:56;;;;;;;4.47;1.60;;;;;;;;;;5053515;28;20071;-80
2023/09/01 06:53:21;;;;;;;6.18;1.50;;;;;;;;;;5049390;28;20230;-79
2023/09/01 06:55:47;;;;;;;4.18;1.60;;;;;;;;;;5052425;28;20021;-80
2023/09/01 06:58:13;;;;;;;4.30;1.30;;;;;;;;;;5054565;28;20481;-75
2023/09/01 07:00:38;;;;;;;6.00;1.55;;;;;;;;;;5056038;28;20024;-78
2023/09/01 07:03:04;;;;;;;4.35;1.50;;;;;;;;;;5059347;28;20017;-73
2023/09/01 07:05:29;;;;;;;5.80;1.90;;;;;;;;;;5068064;28;20021;-76
2023/09/01 07:07:54;;;;;;;3.80;1.50;;;;;;;;;;5053800;28;20025;-75
2023/09/01 07:10:20;;;;;;;5.00;1.48;;;;;;;;;;5057877;28;20103;-76
2023/09/01 07:12:45;;;;;;;4.60;1.40;;;;;;;;;;5045506;28;20032;-76
2023/09/01 07:15:11;;;;;;;6.53;1.70;;;;;;;;;;5054061;28;20078;-76
2023/09/01 07:17:36;;;;;;;3.67;1.45;;;;;;;;;;5068704;28;20059;-73
2023/09/01 07:20:03;;;;;;;4.05;1.45;;;;;;;;;;5060703;28;20086;-78
2023/09/01 07:22:28;;;;;;;4.63;1.52;;;;;;;;;;5049393;28;20040;-76
2023/09/01 07:24:54;;;;;;;4.68;1.20;;;;;;;;;;5051211;28;20389;-75
2023/09/01 07:27:19;;;;;;;4.18;1.30;;;;;;;;;;5054640;28;20025;-76
2023/09/01 07:29:48;;;;;;;2.47;1.20;;;;;;;;;;5051673;28;20044;-75
2023/09/01 07:32:14;;;;;;;4.10;1.20;;;;;;;;;;5049414;28;20049;-74
2023/09/01 07:34:39;;;;;;;3.85;1.40;;;;;;;;;;5056980;28;20085;-76
2023/09/01 07:37:05;;;;;;;6.43;1.38;;;;;;;;;;5052354;28;20021;-78
2023/09/01 07:39:30;;;;;;;3.25;1.48;;;;;;;;;;5051086;28;20021;-74
2023/09/01 07:41:56;;;;;;;3.60;1.30;;;;;;;;;;5057967;28;20021;-76
2023/09/01 07:44:21;;;;;;;3.78;1.33;;;;;;;;;;5056549;28;20040;-78
2023/09/01 07:46:46;;;;;;;3.97;1.45;;;;;;;;;;5065170;28;20036;-78
2023/09/01 07:49:12;;;;;;;4.50;1.27;;;;;;;;;;5058822;28;20037;-79
2023/09/01 07:51:42;;;;;;;4.53;1.50;;;;;;;;;;5068344;28;20128;-75
2023/09/01 07:54:08;;;;;;;2.65;1.25;;;;;;;;;;5076779;28;20050;-74
2023/09/01 07:56:33;;;;;;;3.22;1.30;;;;;;;;;;5063342;28;20033;-75
2023/09/01 07:58:58;;;;;;;6.18;1.40;;;;;;;;;;5069285;28;20032;-76
2023/09/01 08:01:24;;;;;;;4.28;1.10;;;;;;;;;;5063448;28;20143;-73
2023/09/01 08:03:49;;;;;;;3.65;1.00;;;;;;;;;;5060475;28;20099;-79
2023/09/01 08:06:15;;;;;;;2.75;1.20;;;;;;;;;;5061241;28;20025;-75
2023/09/01 08:08:40;;;;;;;4.20;1.63;;;;;;;;;;5047997;28;20024;-75
2023/09/01 08:11:05;;;;;;;2.25;1.17;;;;;;;;;;5072451;28;20019;-78
2023/09/01 08:13:30;;;;;;;2.58;1.20;;;;;;;;;;5072289;28;20040;-77
2023/09/01 08:15:56;;;;;;;2.83;1.08;;;;;;;;;;5062981;28;20401;-75
2023/09/01 08:18:21;;;;;;;2.92;1.17;;;;;;;;;;5054230;28;20536;-75
2023/09/01 08:20:47;;;;;;;3.55;1.40;;;;;;;;;;5072177;28;20680;-77
2023/09/01 08:23:13;;;;;;;2.47;1.23;;;;;;;;;;5071581;28;20078;-74
2023/09/01 08:25:38;;;;;;;4.20;1.20;;;;;;;;;;5070018;28;20024;-79
2023/09/01 08:28:04;;;;;;;5.30;1.48;;;;;;;;;;5055477;28;20031;-75
2023/09/01 08:30:30;;;;;;;2.80;1.20;;;;;;;;;;5069139;28;20107;-77
2023/09/01 08:32:55;;;;;;;2.47;1.15;;;;;;;;;;5053118;28;20119;-74
2023/09/01 08:35:20;;;;;;;3.90;1.40;;;;;;;;;;5044221;28;20026;-77
2023/09/01 08:37:46;;;;;;;3.55;1.40;;;;;;;;;;5057228;28;20025;-75
2023/09/01 08:40:12;;;;;;;3.13;1.40;;;;;;;;;;5060930;28;20075;-74
2023/09/01 08:42:45;;;;;;;5.13;1.70;;;;;;;;;;5064246;28;20033;-80
2023/09/01 08:45:11;;;;;;;4.45;1.67;;;;;;;;;;5072338;28;20017;-78
2023/09/01 08:47:45;;;;;;;4.90;1.50;;;;;;;;;;5060232;28;20032;-75
2023/09/01 08:50:10;;;;;;;4.63;1.55;;;;;;;;;;5058736;28;20118;-74
2023/09/01 08:52:38;;;;;;;3.63;1.48;;;;;;;;;;5059006;28;20033;-74
2023/09/01 08:55:04;;;;;;;4.45;1.58;;;;;;;;;;5056202;28;20531;-75
2023/09/01 08:57:30;;;;;;;5.35;1.80;;;;;;;;;;5058023;28;20111;-78
2023/09/01 08:59:56;;;;;;;5.70;1.58;;;;;;;;;;5055992;28;20036;-74
2023/09/01 09:02:21;;;;;;;4.53;1.60;;;;;;;;;;5053512;28;20028;-79
2023/09/01 09:04:47;;;;;;;4.25;1.50;;;;;;;;;;5061633;28;20025;-78
2023/09/01 09:07:14;;;;;;;3.70;1.50;;;;;;;;;;5063817;28;20040;-75
2023/09/01 09:09:58;;;;;;;2.60;1.20;;;;;;;;;;5061911;28;20105;-75
2023/09/01 09:12:34;;;;;;;8.05;1.63;;;;;;;;;;5071046;28;20024;-78
2023/09/01 09:15:00;;;;;;;3.78;1.70;;;;;;;;;;5070594;28;20031;-76
2023/09/01 09:17:39;;;;;;;3.60;1.52;;;;;;;;;;5071206;28;20024;-75
2023/09/01 09:20:06;;;;;;;4.15;1.60;;;;;;;;;;5070893;28;20078;-76
2023/09/01 09:22:32;;;;;;;5.57;1.50;;;;;;;;;;5071022;28;20048;-79
2023/09/01 09:24:57;;;;;;;3.25;1.70;;;;;;;;;;5070868;28;20035;-79
2023/09/01 09:27:22;;;;;;;5.82;1.70;;;;;;;;;;5070914;28;20028;-79
2023/09/01 09:29:48;;;;;;;3.70;1.50;;;;;;;;;;5070456;28;20044;-80
2023/09/01 09:32:24;;;;;;;4.65;1.40;;;;;;;;;;5070337;28;20035;-81
2023/09/01 09:35:10;;;;;;;6.25;1.58;;;;;;;;;;5070739;28;20024;-80
2023/09/01 09:37:36;;;;;;;5.00;1.70;;;;;;;;;;5069964;28;20030;-79
2023/09/01 09:40:13;;;;;;;5.43;1.50;;;;;;;;;;5070906;28;20027;-86
2023/09/01 09:42:40;;;;;;;4.55;1.70;;;;;;;;;;5070643;28;20040;-81
2023/09/01 09:45:21;;;;;;;7.13;1.58;;;;;;;;;;5070807;28;20407;-81
2023/09/01 09:47:48;;;;;;;4.13;1.40;;;;;;;;;;5051686;28;20025;-77
2023/09/01 09:50:16;;;;;;;4.45;1.70;;;;;;;;;;5056319;28;20238;-80
2023/09/01 09:52:45;;;;;;;4.35;1.60;;;;;;;;;;5062294;28;20044;-79
2023/09/01 09:55:13;;;;;;;5.07;1.67;;;;;;;;;;5053107;28;20064;-78
2023/09/01 09:57:41;;;;;;;3.70;1.70;;;;;;;;;;5054160;28;20083;-76
2023/09/01 10:00:10;;;;;;;4.75;1.50;;;;;;;;;;5053237;28;20040;-77
2023/09/01 10:02:42;;;;;;;4.43;1.60;;;;;;;;;;5060524;28;20036;-79
2023/09/01 10:05:08;;;;;;;4.45;1.55;;;;;;;;;;5059816;28;20021;-78
2023/09/01 10:07:34;;;;;;;4.57;1.70;;;;;;;;;;5051193;28;20039;-79
2023/09/01 10:10:00;;;;;;;4.63;1.60;;;;;;;;;;5058313;28;20028;-81
2023/09/01 10:12:27;;;;;;;4.88;1.42;;;;;;;;;;5061123;28;20225;-77
2023/09/01 10:14:54;;;;;;;4.60;1.63;;;;;;;;;;5060795;28;20264;-73
2023/09/01 10:17:21;;;;;;;8.77;2.25;;;;;;;;;;5072713;28;20028;-78
2023/09/01 10:19:47;;;;;;;4.45;1.50;;;;;;;;;;5059579;28;20335;-78
2023/09/01 10:22:16;;;;;;;4.78;1.40;;;;;;;;;;5074847;28;20034;-80
2023/09/01 10:25:10;;;;;;;4.22;1.40;;;;;;;;;;5080637;28;20529;-74
2023/09/01 10:27:37;;;;;;;4.00;1.55;;;;;;;;;;5072319;28;20029;-78
2023/09/01 10:30:28;;;;;;;3.58;1.40;;;;;;;;;;5060810;28;20033;-78
2023/09/01 10:33:11;;;;;;;4.65;1.40;;;;;;;;;;5062709;28;20040;-75
2023/09/01 10:35:40;;;;;;;4.28;1.50;;;;;;;;;;5073683;28;20320;-77
2023/09/01 10:38:32;;;;;;;3.17;1.30;;;;;;;;;;5061432;28;20028;-77
2023/09/01 10:40:57;;;;;;;3.70;1.40;;;;;;;;;;5062574;28;20108;-77
2023/09/01 10:43:35;;;;;;;3.00;1.30;;;;;;;;;;5069927;28;20036;-77
2023/09/01 10:46:14;;;;;;;3.83;1.30;;;;;;;;;;5055563;28;20033;-74
2023/09/01 10:48:52;;;;;;;3.70;1.38;;;;;;;;;;5080673;28;20323;-73
2023/09/01 10:51:18;;;;;;;2.92;1.40;;;;;;;;;;5061468;28;20035;-74
2023/09/01 10:53:45;;;;;;;2.92;1.30;;;;;;;;;;5072690;28;20028;-75
2023/09/01 10:56:12;;;;;;;3.65;1.40;;;;;;;;;;5077147;28;20486;-77
2023/09/01 10:58:39;;;;;;;3.10;1.45;;;;;;;;;;5071304;28;20055;-78
2023/09/01 11:01:32;;;;;;;3.63;1.50;;;;;;;;;;5054304;28;20217;-78
2023/09/01 11:04:21;;;;;;;3.38;1.50;;;;;;;;;;5067600;28;20100;-78
2023/09/01 11:06:59;;;;;;;3.53;1.60;;;;;;;;;;5032394;28;20293;-82
2023/09/01 11:09:33;;;;;;;3.30;1.50;;;;;;;;;;5046486;28;20234;-79
2023/09/01 11:12:06;;;;;;;2.33;1.05;;;;;;;;;;5058953;28;20027;-75
2023/09/01 11:14:33;;;;;;;4.75;1.30;;;;;;;;;;5080038;28;20040;-74
2023/09/01 11:17:03;;;;;;;3.47;1.38;;;;;;;;;;5076189;28;20032;-74
2023/09/01 11:19:29;;;;;;;5.18;1.42;;;;;;;;;;5065963;28;20047;-76
2023/09/01 11:21:54;;;;;;;4.20;1.50;;;;;;;;;;5071706;28;20052;-73
2023/09/01 11:24:20;;;;;;;4.35;1.60;;;;;;;;;;5074144;28;20036;-76
2023/09/01 11:26:47;;;;;;;4.15;1.60;;;;;;;;;;5072149;28;20028;-73
2023/09/01 11:29:13;;;;;;;4.75;1.60;;;;;;;;;;5079074;28;20209;-77
2023/09/01 11:31:40;;;;;;;2.97;1.42;;;;;;;;;;5079378;28;20390;-74
2023/09/01 11:34:05;;;;;;;2.55;1.10;;;;;;;;;;5079110;28;20082;-75
2023/09/01 11:36:31;;;;;;;3.95;1.40;;;;;;;;;;5075551;28;20032;-75
2023/09/01 11:38:57;;;;;;;6.47;1.50;;;;;;;;;;5069195;28;20059;-75
2023/09/01 11:41:23;;;;;;;3.42;1.50;;;;;;;;;;5068571;28;20060;-77
2023/09/01 11:43:50;;;;;;;3.33;1.60;;;;;;;;;;5073232;28;21608;-78
2023/09/01 11:46:15;;;;;;;5.00;1.90;;;;;;;;;;5072417;28;20020;-77
2023/09/01 11:48:41;;;;;;;3.50;1.42;;;;;;;;;;5077293;28;20049;-74
2023/09/01 11:51:09;;;;;;;4.50;1.40;;;;;;;;;;5072567;28;20370;-77
2023/09/01 11:53:36;;;;;;;5.70;1.50;;;;;;;;;;5071609;28;20332;-77
2023/09/01 11:56:17;;;;;;;2.83;1.40;;;;;;;;;;5049644;28;20108;-77
2023/09/01 11:58:42;;;;;;;4.60;1.55;;;;;;;;;;5067919;28;20013;-75
2023/09/01 12:01:10;;;;;;;4.10;1.60;;;;;;;;;;5073608;28;20044;-75
2023/09/01 12:03:37;;;;;;;6.57;1.67;;;;;;;;;;5066954;28;20028;-76
2023/09/01 12:06:20;;;;;;;4.65;1.65;;;;;;;;;;5068296;28;20170;-76
2023/09/01 12:08:46;;;;;;;3.42;1.40;;;;;;;;;;5065398;28;20070;-77
2023/09/01 12:11:13;;;;;;;2.53;1.30;;;;;;;;;;5067172;28;20097;-73
2023/09/01 12:13:39;;;;;;;3.45;1.30;;;;;;;;;;5069343;28;20029;-78
2023/09/01 12:16:04;;;;;;;5.35;1.40;;;;;;;;;;5067927;28;20025;-75
2023/09/01 12:18:33;;;;;;;4.53;1.42;;;;;;;;;;5046645;28;20013;-77
2023/09/01 12:21:02;;;;;;;4.45;1.38;;;;;;;;;;5067545;28;20048;-75
2023/09/01 12:23:45;;;;;;;3.50;1.50;;;;;;;;;;5069158;28;20029;-77
2023/09/01 12:26:12;;;;;;;2.88;1.30;;;;;;;;;;5073535;28;20033;-74
2023/09/01 12:28:39;;;;;;;4.07;1.23;;;;;;;;;;5077536;28;20036;-75
2023/09/01 12:31:07;;;;;;;3.17;1.30;;;;;;;;;;5077803;28;20031;-74
2023/09/01 12:33:33;;;;;;;2.15;1.10;;;;;;;;;;5074762;28;20037;-74
2023/09/01 12:35:59;;;;;;;3.28;1.40;;;;;;;;;;5074420;28;20064;-78
2023/09/01 12:38:25;;;;;;;4.30;1.35;;;;;;;;;;5076579;28;20461;-74
2023/09/01 12:40:50;;;;;;;3.42;1.25;;;;;;;;;;5067920;28;20032;-75
2023/09/01 12:43:16;;;;;;;4.53;1.35;;;;;;;;;;5078183;28;20027;-78
2023/09/01 12:45:42;;;;;;;4.22;1.20;;;;;;;;;;5056425;28;20025;-75
2023/09/01 12:48:07;;;;;;;6.13;1.65;;;;;;;;;;5059694;28;20033;-75
2023/09/01 12:50:33;;;;;;;3.90;1.60;;;;;;;;;;5057649;28;20079;-79
2023/09/01 12:52:59;;;;;;;3.78;1.65;;;;;;;;;;5048452;28;20060;-78
2023/09/01 12:55:25;;;;;;;2.83;1.20;;;;;;;;;;5065407;28;20339;-75
2023/09/01 12:57:52;;;;;;;5.65;1.48;;;;;;;;;;5061695;28;20029;-78
2023/09/01 13:00:18;;;;;;;2.88;1.50;;;;;;;;;;5061281;28;20021;-75
2023/09/01 13:02:44;;;;;;;3.53;1.35;;;;;;;;;;5066092;28;20052;-78
2023/09/01 13:05:10;;;;;;;3.00;1.30;;;;;;;;;;5068632;28;20076;-74
2023/09/01 13:07:35;;;;;;;4.00;1.45;;;;;;;;;;5063321;28;20044;-77
2023/09/01 13:10:01;;;;;;;4.57;1.20;;;;;;;;;;5060023;28;20293;-77
2023/09/01 13:12:27;;;;;;;4.90;1.40;;;;;;;;;;5060533;28;20052;-78
2023/09/01 13:14:57;;;;;;;4.18;1.40;;;;;;;;;;5056332;28;20040;-77
2023/09/01 13:17:25;;;;;;;2.83;1.40;;;;;;;;;;5059928;28;20051;-76
2023/09/01 13:19:52;;;;;;;4.80;1.50;;;;;;;;;;5056040;28;20371;-75
2023/09/01 13:22:17;;;;;;;2.72;1.30;;;;;;;;;;5016203;28;20021;-76
2023/09/01 13:24:43;;;;;;;3.28;1.40;;;;;;;;;;5057382;28;20041;-75
2023/09/01 13:27:08;;;;;;;4.35;1.70;;;;;;;;;;5073424;28;20108;-78
2023/09/01 13:29:33;;;;;;;4.20;1.40;;;;;;;;;;5052849;28;20047;-78
2023/09/01 13:31:59;;;;;;;3.58;1.30;;;;;;;;;;5074925;28;20150;-78
2023/09/01 13:34:24;;;;;;;2.75;1.20;;;;;;;;;;5060181;28;20328;-78
2023/09/01 13:36:49;;;;;;;2.50;1.20;;;;;;;;;;5044989;28;20269;-78
2023/09/01 13:39:15;;;;;;;3.13;1.30;;;;;;;;;;5080860;28;20059;-77
2023/09/01 13:41:40;;;;;;;5.15;1.58;;;;;;;;;;5080474;28;20443;-79
2023/09/01 13:44:05;;;;;;;3.60;1.30;;;;;;;;;;5081984;28;20035;-78
2023/09/01 13:46:31;;;;;;;3.20;1.40;;;;;;;;;;5078710;28;20029;-79
2023/09/01 13:48:58;;;;;;;4.43;1.40;;;;;;;;;;5073674;28;20226;-80
2023/09/01 13:51:24;;;;;;;7.32;1.65;;;;;;;;;;5054010;28;20025;-83
2023/09/01 13:53:51;;;;;;;3.20;1.20;;;;;;;;;;5080334;28;20351;-79
2023/09/01 13:56:17;;;;;;;4.82;1.40;;;;;;;;;;5080193;28;20040;-83
2023/09/01 13:58:42;;;;;;;3.72;1.50;;;;;;;;;;5066120;28;20056;-80
2023/09/01 14:01:07;;;;;;;2.47;1.30;;;;;;;;;;5080060;28;20062;-83
2023/09/01 14:03:33;;;;;;;3.00;1.40;;;;;;;;;;5079668;28;20029;-83
2023/09/01 14:05:59;;;;;;;3.80;1.58;;;;;;;;;;5080664;28;20024;-79
2023/09/01 14:08:25;;;;;;;2.78;1.52;;;;;;;;;;5079500;28;20044;-82
2023/09/01 14:10:54;;;;;;;4.97;1.60;;;;;;;;;;5080098;28;20296;-81
2023/09/01 14:13:20;;;;;;;3.50;1.40;;;;;;;;;;5078735;28;20100;-80
2023/09/01 14:15:50;;;;;;;9.65;1.35;;;;;;;;;;5067815;28;20029;-80
2023/09/01 14:18:16;;;;;;;3.47;1.45;;;;;;;;;;5073683;28;20029;-84
2023/09/01 14:20:41;;;;;;;3.53;1.63;;;;;;;;;;5075874;28;20016;-79
2023/09/01 14:23:07;;;;;;;1.98;1.15;;;;;;;;;;5062742;28;20045;-81
2023/09/01 14:25:33;;;;;;;4.40;1.45;;;;;;;;;;5064394;28;20317;-81
2023/09/01 14:27:59;;;;;;;3.28;1.20;;;;;;;;;;5065690;28;20028;-83
2023/09/01 14:30:25;;;;;;;4.10;1.30;;;;;;;;;;5070184;28;20168;-80
2023/09/01 14:32:53;;;;;;;2.60;1.30;;;;;;;;;;5056694;28;20041;-81
2023/09/01 14:35:18;;;;;;;4.25;1.48;;;;;;;;;;5062446;28;20100;-81
2023/09/01 14:37:44;;;;;;;2.33;1.23;;;;;;;;;;5061608;28;20025;-82
2023/09/01 14:40:10;;;;;;;3.63;1.45;;;;;;;;;;5062835;28;20032;-80
2023/09/01 14:42:35;;;;;;;7.60;2.70;;;;;;;;;;5062325;28;20029;-83